createdAt,value
2018-04-15T00:01:03.144Z,27.60
2018-04-15T00:03:32.719Z,26.67
2018-04-15T00:06:01.967Z,27.80
2018-04-15T00:08:31.059Z,27.73
2018-04-15T00:11:00.229Z,25.30
2018-04-15T00:13:29.348Z,26.13
2018-04-15T00:15:58.568Z,27.83
2018-04-15T00:18:27.652Z,26.83
2018-04-15T00:20:56.811Z,26.70
2018-04-15T00:23:25.900Z,25.40
2018-04-15T00:25:55.278Z,26.60
2018-04-15T00:28:24.506Z,25.53
2018-04-15T00:30:53.572Z,26.57
2018-04-15T00:33:22.904Z,26.13
2018-04-15T00:35:51.864Z,26.47
2018-04-15T00:38:20.876Z,25.37
2018-04-15T00:40:49.997Z,28.33
2018-04-15T00:43:19.283Z,26.53
2018-04-15T00:45:48.549Z,25.97
2018-04-15T00:48:17.516Z,27.73
2018-04-15T00:50:46.683Z,26.83
2018-04-15T00:53:15.912Z,27.90
2018-04-15T00:55:44.968Z,27.53
2018-04-15T00:58:14.077Z,27.67
2018-04-15T01:00:43.363Z,26.93
2018-04-15T01:03:12.684Z,28.37
2018-04-15T01:05:42.754Z,28.10
2018-04-15T01:08:11.893Z,28.13
2018-04-15T01:10:44.151Z,28.57
2018-04-15T01:13:13.319Z,28.37
2018-04-15T01:15:42.292Z,28.63
2018-04-15T01:18:11.381Z,28.80
2018-04-15T01:20:40.536Z,30.13
2018-04-15T01:23:09.842Z,31.63
2018-04-15T01:25:39.291Z,31.97
2018-04-15T01:28:08.380Z,31.43
2018-04-15T01:30:37.449Z,32.13
2018-04-15T01:33:06.527Z,31.10
2018-04-15T01:35:35.604Z,30.27
2018-04-15T01:38:04.679Z,30.90
2018-04-15T01:40:33.661Z,30.57
2018-04-15T01:43:02.629Z,30.83
2018-04-15T01:45:31.847Z,29.87
2018-04-15T01:48:00.969Z,27.77
2018-04-15T01:50:30.000Z,29.70
2018-04-15T01:52:59.244Z,31.00
2018-04-15T01:55:28.391Z,29.80
2018-04-15T01:57:57.657Z,29.97
2018-04-15T02:00:26.641Z,29.77
2018-04-15T02:02:55.719Z,30.13
2018-04-15T02:05:24.683Z,30.73
2018-04-15T02:07:53.738Z,31.23
2018-04-15T02:10:22.927Z,31.83
2018-04-15T02:12:51.933Z,31.17
2018-04-15T02:15:21.039Z,29.30
2018-04-15T02:17:50.530Z,30.97
2018-04-15T02:20:19.574Z,34.03
2018-04-15T02:22:48.659Z,33.60
2018-04-15T02:25:17.969Z,31.40
2018-04-15T02:27:47.217Z,32.57
2018-04-15T02:30:16.232Z,30.53
2018-04-15T02:32:45.351Z,33.47
2018-04-15T02:35:14.601Z,32.93
2018-04-15T02:37:43.649Z,34.27
2018-04-15T02:40:12.963Z,33.50
2018-04-15T02:42:42.076Z,33.77
2018-04-15T02:45:11.250Z,32.90
2018-04-15T02:47:40.435Z,31.10
2018-04-15T02:50:09.680Z,31.57
2018-04-15T02:52:39.092Z,32.00
2018-04-15T02:55:08.136Z,32.27
2018-04-15T02:57:37.332Z,33.47
2018-04-15T03:00:06.794Z,32.70
2018-04-15T03:02:36.148Z,33.03
2018-04-15T03:05:05.449Z,34.20
2018-04-15T03:07:34.682Z,34.27
2018-04-15T03:10:03.812Z,33.87
2018-04-15T03:12:32.992Z,34.83
2018-04-15T03:15:02.085Z,36.20
2018-04-15T03:17:31.128Z,36.60
2018-04-15T03:20:00.459Z,34.60
2018-04-15T03:22:29.693Z,35.03
2018-04-15T03:24:58.923Z,34.97
2018-04-15T03:27:28.185Z,34.17
2018-04-15T03:29:57.325Z,35.20
2018-04-15T03:32:26.429Z,34.53
2018-04-15T03:34:55.574Z,36.50
2018-04-15T03:37:24.567Z,36.13
2018-04-15T03:39:53.655Z,35.03
2018-04-15T03:42:23.031Z,35.27
2018-04-15T03:44:52.254Z,35.53
2018-04-15T03:47:21.463Z,33.80
2018-04-15T03:49:50.822Z,35.73
2018-04-15T03:52:20.068Z,36.13
2018-04-15T03:54:49.210Z,36.70
2018-04-15T03:57:18.345Z,37.40
2018-04-15T03:59:47.432Z,36.47
2018-04-15T04:02:16.459Z,35.33
2018-04-15T04:04:45.697Z,33.30
2018-04-15T04:07:14.699Z,35.33
2018-04-15T04:09:43.624Z,32.83
2018-04-15T04:12:12.831Z,35.17
2018-04-15T04:14:41.915Z,36.03
2018-04-15T04:17:10.923Z,36.80
2018-04-15T04:19:51.755Z,35.13
2018-04-15T04:22:32.061Z,34.43
2018-04-15T04:25:12.455Z,33.27
2018-04-15T04:27:41.599Z,34.43
2018-04-15T04:30:10.607Z,33.97
2018-04-15T04:32:39.643Z,36.47
2018-04-15T04:35:08.745Z,33.53
2018-04-15T04:37:37.841Z,33.63
2018-04-15T04:40:07.097Z,37.33
2018-04-15T04:42:36.239Z,36.87
2018-04-15T04:45:05.539Z,34.43
2018-04-15T04:47:34.796Z,34.20
2018-04-15T04:50:03.936Z,37.33
2018-04-15T04:52:33.041Z,34.20
2018-04-15T04:55:02.132Z,34.87
2018-04-15T04:57:31.223Z,36.13
2018-04-15T05:00:00.367Z,33.93
2018-04-15T05:02:29.533Z,32.83
2018-04-15T05:04:58.810Z,32.50
2018-04-15T05:07:28.170Z,31.93
2018-04-15T05:09:57.196Z,32.50
2018-04-15T05:12:26.311Z,31.70
2018-04-15T05:14:55.668Z,31.30
2018-04-15T05:17:24.924Z,31.50
2018-04-15T05:19:54.132Z,31.73
2018-04-15T05:22:23.325Z,33.50
2018-04-15T05:24:52.403Z,34.67
2018-04-15T05:27:21.668Z,33.33
2018-04-15T05:29:50.758Z,34.53
2018-04-15T05:32:19.788Z,35.63
2018-04-15T05:34:49.050Z,36.33
2018-04-15T05:37:18.232Z,36.23
2018-04-15T05:39:47.341Z,34.63
2018-04-15T05:42:16.601Z,31.00
2018-04-15T05:44:45.735Z,31.27
2018-04-15T05:47:14.768Z,31.50
2018-04-15T05:49:43.836Z,34.27
2018-04-15T05:52:12.983Z,32.87
2018-04-15T05:54:42.219Z,32.57
2018-04-15T05:57:11.381Z,32.97
2018-04-15T05:59:40.416Z,34.97
2018-04-15T06:02:09.562Z,34.83
2018-04-15T06:04:38.595Z,31.57
2018-04-15T06:07:07.918Z,31.70
2018-04-15T06:09:36.978Z,32.47
2018-04-15T06:12:05.935Z,37.83
2018-04-15T06:14:35.044Z,34.10
2018-04-15T06:17:04.298Z,29.63
2018-04-15T06:19:33.857Z,30.13
2018-04-15T06:22:03.165Z,31.63
2018-04-15T06:24:32.542Z,31.43
2018-04-15T06:27:01.675Z,31.20
2018-04-15T06:29:30.787Z,29.20
2018-04-15T06:31:59.955Z,32.77
2018-04-15T06:34:29.057Z,31.40
2018-04-15T06:36:58.221Z,30.97
2018-04-15T06:39:27.335Z,30.27
2018-04-15T06:41:56.309Z,30.43
2018-04-15T06:44:25.392Z,30.63
2018-04-15T06:46:54.523Z,30.33
2018-04-15T06:49:23.555Z,30.63
2018-04-15T06:51:52.749Z,30.13
2018-04-15T06:54:22.010Z,27.73
2018-04-15T06:56:51.144Z,31.17
2018-04-15T06:59:20.311Z,31.43
2018-04-15T07:01:49.463Z,30.17
2018-04-15T07:04:18.604Z,27.57
2018-04-15T07:06:47.759Z,29.30
2018-04-15T07:09:16.955Z,28.57
2018-04-15T07:11:45.948Z,29.50
2018-04-15T07:14:15.297Z,27.23
2018-04-15T07:16:44.426Z,26.67
2018-04-15T07:19:13.427Z,25.00
2018-04-15T07:21:42.548Z,27.43
2018-04-15T07:24:11.608Z,25.63
2018-04-15T07:26:40.648Z,26.77
2018-04-15T07:29:09.800Z,25.63
2018-04-15T07:31:38.924Z,27.47
2018-04-15T07:34:07.964Z,27.10
2018-04-15T07:36:37.154Z,26.53
2018-04-15T07:39:06.253Z,28.37
2018-04-15T07:41:35.359Z,29.80
2018-04-15T07:44:04.448Z,29.33
2018-04-15T07:46:33.551Z,28.77
2018-04-15T07:49:02.561Z,27.27
2018-04-15T07:51:31.559Z,28.57
2018-04-15T07:54:00.671Z,28.30
2018-04-15T07:56:29.683Z,28.83
2018-04-15T07:58:58.684Z,26.27
2018-04-15T08:01:27.712Z,28.47
2018-04-15T08:03:56.771Z,27.43
2018-04-15T08:06:25.853Z,27.73
2018-04-15T08:08:54.943Z,23.83
2018-04-15T08:11:23.948Z,25.13
2018-04-15T08:13:52.967Z,26.50
2018-04-15T08:16:21.942Z,26.13
2018-04-15T08:18:50.906Z,26.40
2018-04-15T08:21:19.865Z,27.17
2018-04-15T08:23:48.865Z,26.43
2018-04-15T08:26:17.863Z,25.53
2018-04-15T08:28:46.827Z,25.03
2018-04-15T08:31:16.048Z,24.90
2018-04-15T08:33:45.049Z,23.83
2018-04-15T08:36:14.202Z,23.93
2018-04-15T08:38:43.293Z,24.27
2018-04-15T08:41:12.331Z,24.27
2018-04-15T08:43:41.468Z,24.47
2018-04-15T08:46:10.677Z,24.17
2018-04-15T08:48:39.868Z,23.83
2018-04-15T08:51:08.919Z,24.20
2018-04-15T08:53:37.895Z,26.13
2018-04-15T08:56:07.047Z,25.33
2018-04-15T08:58:36.127Z,24.43
2018-04-15T09:01:05.156Z,22.50
2018-04-15T09:03:34.152Z,23.73
2018-04-15T09:06:03.248Z,24.00
2018-04-15T09:08:32.440Z,22.00
2018-04-15T09:11:01.464Z,23.40
2018-04-15T09:13:30.491Z,22.90
2018-04-15T09:15:59.728Z,22.50
2018-04-15T09:18:28.709Z,22.57
2018-04-15T09:20:57.790Z,22.60
2018-04-15T09:23:26.801Z,25.00
2018-04-15T09:25:55.768Z,24.13
2018-04-15T09:28:26.720Z,24.53
2018-04-15T09:31:01.350Z,23.53
2018-04-15T09:33:30.366Z,22.73
2018-04-15T09:35:59.488Z,23.57
2018-04-15T09:38:28.607Z,21.83
2018-04-15T09:40:58.083Z,22.93
2018-04-15T09:43:27.088Z,24.20
2018-04-15T09:45:56.110Z,23.57
2018-04-15T09:48:25.151Z,22.03
2018-04-15T09:50:54.145Z,23.67
2018-04-15T09:53:23.291Z,24.17
2018-04-15T09:55:52.281Z,26.27
2018-04-15T09:58:21.248Z,20.63
2018-04-15T10:00:50.271Z,22.23
2018-04-15T10:03:19.262Z,22.20
2018-04-15T10:05:48.276Z,22.13
2018-04-15T10:08:17.371Z,23.10
2018-04-15T10:10:46.359Z,22.23
2018-04-15T10:13:15.555Z,24.07
2018-04-15T10:15:44.803Z,25.93
2018-04-15T10:18:13.792Z,23.33
2018-04-15T10:20:42.752Z,23.00
2018-04-15T10:23:12.621Z,23.20
2018-04-15T10:25:41.716Z,22.10
2018-04-15T10:28:10.872Z,24.23
2018-04-15T10:30:40.235Z,22.50
2018-04-15T10:33:09.451Z,22.37
2018-04-15T10:35:38.796Z,21.83
2018-04-15T10:38:07.844Z,21.27
2018-04-15T10:40:37.200Z,25.63
2018-04-15T10:43:06.391Z,20.20
2018-04-15T10:45:35.427Z,20.97
2018-04-15T10:48:04.410Z,20.23
2018-04-15T10:50:33.480Z,20.90
2018-04-15T10:53:02.470Z,20.70
2018-04-15T10:55:31.759Z,21.30
2018-04-15T10:58:00.811Z,19.77
2018-04-15T11:00:30.132Z,21.73
2018-04-15T11:02:59.277Z,21.77
2018-04-15T11:05:28.511Z,22.10
2018-04-15T11:07:57.769Z,21.10
2018-04-15T11:10:27.008Z,22.40
2018-04-15T11:12:56.208Z,24.10
2018-04-15T11:15:25.287Z,19.97
2018-04-15T11:17:54.485Z,21.77
2018-04-15T11:20:23.472Z,23.63
2018-04-15T11:22:52.635Z,24.77
2018-04-15T11:25:21.891Z,23.07
2018-04-15T11:27:50.956Z,22.67
2018-04-15T11:30:20.086Z,23.80
2018-04-15T11:32:49.261Z,22.40
2018-04-15T11:35:18.531Z,22.80
2018-04-15T11:37:47.563Z,21.37
2018-04-15T11:40:16.680Z,20.77
2018-04-15T11:42:45.794Z,21.93
2018-04-15T11:45:15.095Z,19.57
2018-04-15T11:47:44.333Z,18.03
2018-04-15T11:50:13.467Z,18.70
2018-04-15T11:52:42.737Z,18.97
2018-04-15T11:55:11.867Z,20.10
2018-04-15T11:57:41.066Z,22.83
2018-04-15T12:00:10.219Z,23.03
2018-04-15T12:02:39.308Z,22.50
2018-04-15T12:05:08.597Z,23.43
2018-04-15T12:07:37.656Z,22.33
2018-04-15T12:10:06.750Z,23.23
2018-04-15T12:12:35.898Z,23.40
2018-04-15T12:15:05.105Z,22.07
2018-04-15T12:17:34.262Z,21.07
2018-04-15T12:20:03.542Z,20.33
2018-04-15T12:22:32.785Z,19.20
2018-04-15T12:25:01.997Z,19.13
2018-04-15T12:27:31.136Z,18.93
2018-04-15T12:30:00.255Z,18.77
2018-04-15T12:32:29.458Z,17.27
2018-04-15T12:34:58.636Z,18.33
2018-04-15T12:37:27.872Z,18.33
2018-04-15T12:39:57.037Z,18.83
2018-04-15T12:42:26.228Z,20.77
2018-04-15T12:44:55.410Z,20.03
2018-04-15T12:47:24.623Z,19.40
2018-04-15T12:49:53.773Z,20.93
2018-04-15T12:52:23.101Z,19.93
2018-04-15T12:54:52.584Z,19.60
2018-04-15T12:57:21.621Z,18.53
2018-04-15T12:59:50.601Z,18.20
2018-04-15T13:02:19.812Z,17.00
2018-04-15T13:04:49.272Z,16.00
2018-04-15T13:07:18.317Z,16.67
2018-04-15T13:09:47.518Z,16.13
2018-04-15T13:12:16.624Z,16.37
2018-04-15T13:14:45.715Z,16.13
2018-04-15T13:17:14.800Z,15.60
2018-04-15T13:19:43.912Z,15.30
2018-04-15T13:22:13.155Z,15.70
2018-04-15T13:24:42.351Z,16.10
2018-04-15T13:27:11.609Z,16.40
2018-04-15T13:29:40.796Z,15.30
2018-04-15T13:32:10.032Z,16.63
2018-04-15T13:34:39.095Z,14.33
2018-04-15T13:37:08.176Z,15.67
2018-04-15T13:39:37.281Z,14.50
2018-04-15T13:42:06.376Z,13.97
2018-04-15T13:44:35.479Z,15.20
2018-04-15T13:47:04.586Z,14.60
2018-04-15T13:49:33.504Z,17.10
2018-04-15T13:52:02.504Z,17.00
2018-04-15T13:54:31.502Z,17.23
2018-04-15T13:57:00.303Z,16.93
2018-04-15T13:59:29.302Z,15.27
2018-04-15T14:01:58.486Z,16.80
2018-04-15T14:04:27.735Z,16.90
2018-04-15T14:06:56.973Z,16.37
2018-04-15T14:09:25.874Z,17.10
2018-04-15T14:11:55.010Z,16.90
2018-04-15T14:14:24.173Z,16.93
2018-04-15T14:16:53.780Z,17.43
2018-04-15T14:19:22.834Z,16.73
2018-04-15T14:21:51.947Z,16.57
2018-04-15T14:24:21.122Z,16.67
2018-04-15T14:26:50.356Z,16.30
2018-04-15T14:29:19.533Z,17.80
2018-04-15T14:31:48.613Z,18.60
2018-04-15T14:34:17.921Z,19.10
2018-04-15T14:36:47.000Z,19.10
2018-04-15T14:39:16.056Z,19.43
2018-04-15T14:41:45.124Z,20.67
2018-04-15T14:44:15.060Z,19.87
2018-04-15T14:46:44.315Z,20.07
2018-04-15T14:49:13.516Z,18.37
2018-04-15T14:51:42.824Z,18.67
2018-04-15T14:54:11.710Z,19.80
2018-04-15T14:56:40.790Z,20.00
2018-04-15T14:59:09.867Z,20.73
2018-04-15T15:01:38.961Z,23.67
2018-04-15T15:04:08.192Z,24.57
2018-04-15T15:06:37.383Z,23.07
2018-04-15T15:09:07.673Z,23.27
2018-04-15T15:11:36.643Z,25.43
2018-04-15T15:14:05.620Z,25.73
2018-04-15T15:16:34.428Z,24.37
2018-04-15T15:19:03.504Z,24.53
2018-04-15T15:21:32.377Z,25.93
2018-04-15T15:24:01.228Z,22.10
2018-04-15T15:26:30.057Z,23.33
2018-04-15T15:28:58.942Z,23.60
2018-04-15T15:31:27.942Z,23.20
2018-04-15T15:33:56.824Z,22.23
2018-04-15T15:36:25.896Z,25.40
2018-04-15T15:38:54.864Z,25.73
2018-04-15T15:41:23.729Z,26.20
2018-04-15T15:43:52.763Z,26.13
2018-04-15T15:46:21.940Z,25.50
2018-04-15T15:48:50.893Z,24.87
2018-04-15T15:51:20.147Z,26.40
2018-04-15T15:53:49.156Z,26.47
2018-04-15T15:56:18.072Z,26.37
2018-04-15T15:58:46.969Z,28.87
2018-04-15T16:01:15.914Z,27.43
2018-04-15T16:03:44.960Z,29.13
2018-04-15T16:06:13.805Z,27.07
2018-04-15T16:08:42.777Z,25.57
2018-04-15T16:11:11.768Z,27.47
2018-04-15T16:13:40.878Z,29.37
2018-04-15T16:16:09.703Z,25.70
2018-04-15T16:18:38.723Z,25.27
2018-04-15T16:21:07.578Z,28.33
2018-04-15T16:23:36.453Z,30.03
2018-04-15T16:26:05.444Z,28.23
2018-04-15T16:28:34.230Z,28.60
2018-04-15T16:31:03.164Z,28.90
2018-04-15T16:33:32.073Z,31.17
2018-04-15T16:36:01.116Z,29.33
2018-04-15T16:38:29.959Z,31.53
2018-04-15T16:40:58.797Z,31.03
2018-04-15T16:43:27.839Z,32.00
2018-04-15T16:45:56.682Z,31.03
2018-04-15T16:48:25.477Z,32.67
2018-04-15T16:50:54.297Z,33.53
2018-04-15T16:53:23.100Z,32.33
2018-04-15T16:55:51.987Z,33.07
2018-04-15T16:58:20.868Z,35.03
2018-04-15T17:00:49.871Z,32.30
2018-04-15T17:03:18.910Z,31.50
2018-04-15T17:05:47.824Z,30.97
2018-04-15T17:08:16.840Z,28.20
2018-04-15T17:10:45.642Z,28.80
2018-04-15T17:13:14.485Z,28.47
2018-04-15T17:15:43.255Z,34.77
2018-04-15T17:18:12.063Z,32.07
2018-04-15T17:20:40.883Z,36.67
2018-04-15T17:23:09.744Z,38.03
2018-04-15T17:25:38.624Z,34.33
2018-04-15T17:28:07.658Z,32.00
2018-04-15T17:30:36.966Z,34.10
2018-04-15T17:33:05.974Z,37.60
2018-04-15T17:35:35.069Z,37.47
2018-04-15T17:38:03.946Z,41.57
2018-04-15T17:40:32.724Z,39.57
2018-04-15T17:43:01.735Z,41.47
2018-04-15T17:45:30.522Z,39.43
2018-04-15T17:47:59.271Z,36.80
2018-04-15T17:50:28.043Z,33.40
2018-04-15T17:52:56.890Z,35.90
2018-04-15T17:55:25.742Z,36.10
2018-04-15T17:57:54.612Z,37.03
2018-04-15T18:00:23.569Z,37.67
2018-04-15T18:02:52.364Z,36.43
2018-04-15T18:05:21.191Z,36.60
2018-04-15T18:07:50.170Z,38.03
2018-04-15T18:10:19.119Z,38.17
2018-04-15T18:12:47.969Z,40.27
2018-04-15T18:15:16.913Z,39.73
2018-04-15T18:17:45.791Z,39.40
2018-04-15T18:20:14.725Z,38.97
2018-04-15T18:22:43.590Z,35.00
2018-04-15T18:25:12.465Z,34.57
2018-04-15T18:27:41.364Z,34.67
2018-04-15T18:30:10.294Z,38.03
2018-04-15T18:32:39.178Z,37.73
2018-04-15T18:35:08.072Z,33.00
2018-04-15T18:37:36.923Z,35.70
2018-04-15T18:40:05.920Z,35.90
2018-04-15T18:42:34.780Z,33.40
2018-04-15T18:45:03.619Z,33.83
2018-04-15T18:47:32.547Z,31.43
2018-04-15T18:50:01.519Z,33.97
2018-04-15T18:52:30.391Z,31.50
2018-04-15T18:54:59.267Z,32.30
2018-04-15T18:57:28.076Z,32.23
2018-04-15T18:59:56.882Z,33.07
2018-04-15T19:02:25.657Z,33.67
2018-04-15T19:04:54.459Z,33.90
2018-04-15T19:07:23.266Z,35.40
2018-04-15T19:09:52.104Z,32.90
2018-04-15T19:12:20.992Z,33.70
2018-04-15T19:14:50.004Z,34.60
2018-04-15T19:17:18.761Z,34.73
2018-04-15T19:19:47.712Z,35.13
2018-04-15T19:22:16.660Z,34.43
2018-04-15T19:24:45.547Z,32.00
2018-04-15T19:27:14.543Z,34.50
2018-04-15T19:29:43.405Z,32.40
2018-04-15T19:32:12.394Z,32.53
2018-04-15T19:34:41.331Z,32.17
2018-04-15T19:37:10.384Z,32.03
2018-04-15T19:39:39.262Z,34.60
2018-04-15T19:42:08.503Z,33.10
2018-04-15T19:44:37.509Z,35.83
2018-04-15T19:47:06.403Z,38.50
2018-04-15T19:49:35.267Z,37.33
2018-04-15T19:52:04.354Z,35.47
2018-04-15T19:54:33.620Z,36.43
2018-04-15T19:57:02.447Z,35.33
2018-04-15T19:59:31.267Z,34.20
2018-04-15T20:02:01.139Z,36.07
2018-04-15T20:04:30.104Z,37.63
2018-04-15T20:06:59.000Z,32.13
2018-04-15T20:09:27.964Z,35.37
2018-04-15T20:11:56.882Z,34.63
2018-04-15T20:14:25.776Z,32.43
2018-04-15T20:16:54.636Z,33.73
2018-04-15T20:19:23.437Z,35.00
2018-04-15T20:21:52.607Z,34.10
2018-04-15T20:24:22.004Z,33.37
2018-04-15T20:26:50.818Z,33.83
2018-04-15T20:29:19.664Z,32.23
2018-04-15T20:31:48.478Z,33.00
2018-04-15T20:34:17.408Z,31.20
2018-04-15T20:36:46.425Z,32.17
2018-04-15T20:39:15.176Z,30.27
2018-04-15T20:41:44.126Z,31.47
2018-04-15T20:44:13.756Z,31.90
2018-04-15T20:46:42.517Z,26.80
2018-04-15T20:49:11.388Z,28.97
2018-04-15T20:51:40.676Z,30.30
2018-04-15T20:54:09.468Z,30.30
2018-04-15T20:56:38.357Z,28.93
2018-04-15T20:59:07.260Z,31.33
2018-04-15T21:01:36.443Z,29.47
2018-04-15T21:04:05.396Z,30.77
2018-04-15T21:06:34.300Z,31.17
2018-04-15T21:09:03.249Z,28.43
2018-04-15T21:11:32.185Z,28.23
2018-04-15T21:14:01.118Z,28.10
2018-04-15T21:16:29.947Z,28.47
2018-04-15T21:18:59.003Z,27.93
2018-04-15T21:21:27.837Z,28.27
2018-04-15T21:23:56.715Z,24.87
2018-04-15T21:26:25.634Z,26.27
2018-04-15T21:28:55.441Z,25.33
2018-04-15T21:31:24.322Z,26.10
2018-04-15T21:33:53.215Z,26.83
2018-04-15T21:36:22.268Z,26.07
2018-04-15T21:38:51.245Z,26.73
2018-04-15T21:41:20.088Z,28.33
2018-04-15T21:43:49.037Z,28.33
2018-04-15T21:46:17.899Z,27.13
2018-04-15T21:48:46.809Z,28.23
2018-04-15T21:51:15.663Z,27.83
2018-04-15T21:53:44.552Z,27.97
2018-04-15T21:56:13.733Z,27.53
2018-04-15T21:58:42.695Z,28.23
2018-04-15T22:01:21.306Z,27.43
2018-04-15T22:03:50.161Z,23.60
2018-04-15T22:06:19.380Z,25.50
2018-04-15T22:08:48.301Z,24.30
2018-04-15T22:11:17.345Z,25.50
2018-04-15T22:13:46.233Z,26.80
2018-04-15T22:16:15.376Z,26.40
2018-04-15T22:18:44.173Z,26.17
2018-04-15T22:21:13.214Z,25.17
2018-04-15T22:23:42.160Z,22.60
2018-04-15T22:26:11.249Z,23.30
2018-04-15T22:28:40.130Z,23.00
2018-04-15T22:31:09.181Z,23.50
2018-04-15T22:33:38.378Z,23.83
2018-04-15T22:36:07.329Z,21.87
2018-04-15T22:38:36.176Z,22.63
2018-04-15T22:41:05.252Z,22.50
2018-04-15T22:43:34.122Z,21.20
2018-04-15T22:46:02.936Z,21.50
2018-04-15T22:48:37.353Z,21.50
2018-04-15T22:51:06.255Z,21.63
2018-04-15T22:53:35.212Z,21.57
2018-04-15T22:56:10.116Z,23.07
2018-04-15T22:58:44.612Z,22.97
2018-04-15T23:01:13.488Z,21.23
2018-04-15T23:03:42.789Z,20.70
2018-04-15T23:06:11.868Z,22.07
2018-04-15T23:08:41.036Z,21.00
2018-04-15T23:11:10.204Z,20.43
2018-04-15T23:13:39.393Z,21.23
2018-04-15T23:16:08.759Z,19.43
2018-04-15T23:18:37.907Z,21.10
2018-04-15T23:21:07.076Z,21.80
2018-04-15T23:23:36.244Z,20.27
2018-04-15T23:26:05.373Z,19.20
2018-04-15T23:28:34.571Z,19.57
2018-04-15T23:31:03.677Z,19.90
2018-04-15T23:33:32.868Z,21.20
2018-04-15T23:36:02.019Z,22.07
2018-04-15T23:38:31.155Z,20.80
2018-04-15T23:41:00.265Z,20.40
2018-04-15T23:43:29.509Z,20.40
2018-04-15T23:45:58.550Z,22.87
2018-04-15T23:48:27.744Z,21.77
2018-04-15T23:50:56.780Z,23.03
2018-04-15T23:53:26.047Z,25.30
2018-04-15T23:55:55.180Z,23.53
2018-04-15T23:58:24.368Z,22.73
